createdAt,value
2016-04-29T00:00:16.267Z,98.54
2016-04-29T00:01:15.802Z,99.29
2016-04-29T00:02:15.773Z,99.1
2016-04-29T00:03:15.744Z,98.91
2016-04-29T00:04:15.716Z,98.72
2016-04-29T00:05:15.719Z,98.44
2016-04-29T00:06:15.658Z,98.82
2016-04-29T00:07:15.630Z,99.01
2016-04-29T00:08:15.601Z,99.2
2016-04-29T00:09:15.573Z,98.82
2016-04-29T00:10:15.544Z,99.01
2016-04-29T00:11:15.516Z,99.01
2016-04-29T00:12:15.488Z,98.63
2016-04-29T00:13:15.442Z,98.54
2016-04-29T00:14:15.429Z,98.72
2016-04-29T00:15:15.300Z,98.35
2016-04-29T00:16:15.467Z,98.35
2016-04-29T00:17:15.463Z,98.16
2016-04-29T00:18:15.474Z,98.44
2016-04-29T00:19:15.492Z,98.54
2016-04-29T00:20:15.462Z,99.01
2016-04-29T00:21:15.463Z,98.54
2016-04-29T00:22:15.434Z,98.54
2016-04-29T00:23:15.418Z,98.63
2016-04-29T00:24:15.401Z,98.63
2016-04-29T00:25:15.378Z,98.82
2016-04-29T00:26:15.354Z,98.91
2016-04-29T00:27:15.346Z,98.72
2016-04-29T00:28:15.306Z,99.39
2016-04-29T00:29:15.282Z,99.1
2016-04-29T00:30:15.099Z,99.29
2016-04-29T00:31:15.213Z,99.1
2016-04-29T00:32:15.187Z,99.2
2016-04-29T00:33:15.159Z,98.72
2016-04-29T00:34:15.133Z,99.29
2016-04-29T00:35:15.105Z,98.82
2016-04-29T00:36:15.078Z,99.29
2016-04-29T00:37:15.049Z,99.01
2016-04-29T00:38:15.021Z,98.82
2016-04-29T00:39:14.994Z,99.2
2016-04-29T00:40:14.967Z,99.01
2016-04-29T00:41:14.937Z,98.82
2016-04-29T00:42:14.909Z,98.63
2016-04-29T00:43:14.881Z,98.72
2016-04-29T18:19:15.078Z,93.46
2016-04-29T18:20:15.206Z,93.65
2016-04-29T18:21:15.179Z,93.75
2016-04-29T18:22:15.166Z,93.84
2016-04-29T18:23:15.138Z,94.13
2016-04-29T18:24:15.108Z,93.65
2016-04-29T18:25:15.080Z,93.75
2016-04-29T22:35:36.465Z,97.6
2016-04-29T22:36:36.748Z,97.12
2016-04-29T22:37:36.158Z,97.31
2016-04-29T22:38:35.395Z,98.26
2016-04-29T22:39:36.804Z,97.78
2016-04-29T22:40:35.198Z,97.97
2016-04-29T22:41:34.466Z,97.97
2016-04-29T22:42:35.515Z,97.97
2016-04-29T22:43:35.361Z,97.97
2016-04-29T22:44:35.208Z,97.69
2016-04-29T22:45:37.054Z,98.17
2016-04-29T22:46:36.885Z,97.88
2016-04-29T22:47:36.826Z,97.97
2016-04-29T22:48:36.734Z,98.26
2016-04-29T22:49:36.830Z,97.31
2016-04-29T22:50:36.474Z,97.41
2016-04-29T22:51:36.805Z,97.6
2016-04-29T22:52:36.432Z,97.78
2016-04-29T22:53:36.076Z,97.36
2016-04-29T22:54:36.548Z,97.22
2016-04-29T22:55:36.691Z,97.88
2016-04-29T22:56:36.255Z,97.78
2016-04-29T22:57:36.213Z,97.6
2016-04-29T22:58:34.543Z,97.41
2016-04-29T22:59:35.061Z,97.69
2016-04-29T23:00:34.846Z,97.41
2016-04-29T23:01:34.785Z,97.6
2016-04-29T23:02:35.834Z,97.6
2016-04-29T23:03:36.681Z,97.5
2016-04-29T23:04:34.496Z,97.69
2016-04-29T23:05:34.687Z,97.31
2016-04-29T23:06:35.487Z,97.5
2016-04-29T23:07:33.785Z,96.93
2016-04-29T23:08:33.756Z,98.17
2016-04-29T23:09:33.729Z,97.97
2016-04-29T23:10:33.701Z,97.78
2016-04-29T23:11:33.671Z,97.6
2016-04-29T23:12:33.643Z,97.78
2016-04-29T23:13:33.631Z,97.97
2016-04-29T23:14:33.601Z,97.97
2016-04-29T23:15:33.573Z,98.07
2016-04-29T23:16:33.545Z,98.07
2016-04-29T23:17:33.516Z,97.69
2016-04-29T23:18:33.347Z,98.36
2016-04-29T23:19:33.458Z,98.45
2016-04-29T23:20:33.445Z,98.74
2016-04-29T23:21:33.402Z,98.45
2016-04-29T23:22:33.388Z,98.36
2016-04-29T23:23:33.361Z,97.69
2016-04-29T23:24:33.331Z,97.97
2016-04-29T23:25:33.302Z,98.07
2016-04-29T23:26:33.274Z,98.03
2016-04-29T23:27:33.277Z,97.97
2016-04-29T23:28:33.233Z,97.69
2016-04-29T23:29:33.205Z,97.88
2016-04-29T23:30:33.191Z,97.97
2016-04-29T23:31:33.147Z,98.22
2016-04-29T23:32:32.978Z,97.93
2016-04-29T23:33:33.871Z,97.36
2016-04-29T23:34:33.077Z,97.45
2016-04-29T23:35:33.049Z,97.36
2016-04-29T23:36:33.020Z,97.36
2016-04-29T23:37:32.991Z,97.45
2016-04-29T23:38:32.806Z,97.74
2016-04-29T23:39:32.950Z,97.36
2016-04-29T23:40:32.906Z,97.93
2016-04-29T23:41:32.892Z,97.74
2016-04-29T23:42:32.864Z,97.55
2016-04-29T23:43:32.836Z,97.74
2016-04-29T23:44:32.807Z,97.36
2016-04-29T23:45:32.794Z,97.55
2016-04-29T23:46:32.765Z,97.45
2016-04-29T23:47:32.722Z,97.45
2016-04-29T23:48:32.709Z,97.08
2016-04-29T23:49:32.681Z,96.79
2016-04-29T23:50:32.667Z,97.17
2016-04-29T23:51:32.623Z,97.08
2016-04-29T23:52:32.610Z,97.08
2016-04-29T23:53:32.566Z,97.03
2016-04-29T23:54:32.553Z,96.45
2016-04-29T23:55:32.524Z,96.45
2016-04-29T23:56:32.496Z,96.84
2016-04-29T23:57:32.466Z,96.08
2016-04-29T23:58:32.438Z,96.45
2016-04-29T23:59:32.410Z,96.26
